Time;durP1;ratioP1;P1;durP2;ratioP2;P2;SDS_P1;SDS_P2;PMS_P1;PMS_P2;Temp;Humidity;BMP_temperature;BMP_pressure;BME280_temperature;BME280_humidity;BME280_pressure;Samples;Min_cycle;Max_cycle;Signal;HPM_P1;HPM_P2
2020/12/14 00:00:01;;;;;;;;;;;;;;;;;;4994310;28;19909;-43
2020/12/14 00:02:26;;;;;;;;;;;;;;;;;;4993916;28;19917;-44
2020/12/14 00:04:52;;;;;;;;;;;;;;;;;;4994497;28;19910;-42
2020/12/14 00:07:18;;;;;;;;;;;;;;;;;;4993866;28;19953;-44
2020/12/14 00:09:43;;;;;;;;;;;;;;;;;;4994339;28;19910;-41
2020/12/14 00:12:10;;;;;;;;;;;;;;;;;;4993732;28;19909;-43
2020/12/14 00:14:35;;;;;;;;;;;;;;;;;;4993926;28;19972;-43
2020/12/14 00:17:00;;;;;;;;;;;;;;;;;;4994028;28;19914;-45
2020/12/14 00:19:25;;;;;;;;;;;;;;;;;;4993962;28;20012;-43
2020/12/14 00:21:50;;;;;;;;;;;;;;;;;;4994117;28;20330;-43
2020/12/14 00:24:15;;;;;;;;;;;;;;;;;;4993429;28;20434;-43
2020/12/14 00:26:40;;;;;;;;;;;;;;;;;;4992527;28;20370;-42
2020/12/14 00:29:06;;;;;;;;;;;;;;;;;;4993834;28;19909;-43
2020/12/14 00:31:31;;;;;;;;;;;;;;;;;;4994031;28;19964;-44
2020/12/14 00:33:56;;;;;;;;;;;;;;;;;;4993405;28;20322;-43
2020/12/14 00:36:21;;;;;;;;;;;;;;;;;;4992695;28;20272;-42
2020/12/14 00:38:46;;;;;;;;;;;;;;;;;;4993758;28;20522;-42
2020/12/14 00:41:11;;;;;;;;;;;;;;;;;;4993673;28;20020;-44
2020/12/14 00:43:36;;;;;;;;;;;;;;;;;;4993172;28;20011;-44
2020/12/14 00:46:01;;;;;;;;;;;;;;;;;;4993778;28;20000;-42
2020/12/14 00:48:26;;;;;;;;;;;;;;;;;;4993647;28;19906;-44
2020/12/14 00:50:51;;;;;;;;;;;;;;;;;;4993308;28;19933;-44
2020/12/14 00:53:17;;;;;;;;;;;;;;;;;;4993189;28;20296;-45
2020/12/14 00:55:42;;;;;;;;;;;;;;;;;;4993495;28;19906;-45
2020/12/14 00:58:07;;;;;;;;;;;;;;;;;;4992680;28;20003;-45
2020/12/14 01:00:32;;;;;;;;;;;;;;;;;;4993248;28;19906;-41
2020/12/14 01:02:57;;;;;;;;;;;;;;;;;;4991636;28;19925;-44
2020/12/14 01:05:22;;;;;;;;;;;;;;;;;;4993102;28;19914;-43
2020/12/14 01:07:47;;;;;;;;;;;;;;;;;;4992953;28;19916;-43
2020/12/14 01:10:12;;;;;;;;;;;;;;;;;;4993274;28;19914;-44
2020/12/14 01:12:37;;;;;;;;;;;;;;;;;;4992799;28;19910;-44
2020/12/14 01:15:03;;;;;;;;;;;;;;;;;;4993106;28;19916;-42
2020/12/14 01:17:28;;;;;;;;;;;;;;;;;;4993200;28;20012;-42
2020/12/14 01:19:53;;;;;;;;;;;;;;;;;;4993167;28;20008;-43
2020/12/14 01:22:18;;;;;;;;;;;;;;;;;;4992781;28;20000;-42
2020/12/14 01:24:43;;;;;;;;;;;;;;;;;;4993848;28;20033;-43
2020/12/14 01:27:08;;;;;;;;;;;;;;;;;;4993362;28;19957;-42
2020/12/14 01:29:33;;;;;;;;;;;;;;;;;;4993333;28;19917;-43
2020/12/14 01:31:58;;;;;;;;;;;;;;;;;;4992909;28;19974;-42
2020/12/14 01:34:23;;;;;;;;;;;;;;;;;;4993095;28;20144;-42
2020/12/14 01:36:49;;;;;;;;;;;;;;;;;;4992911;28;19913;-43
2020/12/14 01:39:14;;;;;;;;;;;;;;;;;;4993023;28;19964;-45
2020/12/14 01:41:39;;;;;;;;;;;;;;;;;;4992905;28;19919;-43
2020/12/14 01:44:04;;;;;;;;;;;;;;;;;;4992562;28;20339;-46
2020/12/14 01:46:29;;;;;;;;;;;;;;;;;;4992916;28;20009;-44
2020/12/14 01:48:54;;;;;;;;;;;;;;;;;;4992852;28;20000;-45
2020/12/14 01:51:19;;;;;;;;;;;;;;;;;;4992835;28;19914;-42
2020/12/14 01:53:44;;;;;;;;;;;;;;;;;;4992402;28;19910;-44
2020/12/14 01:56:10;;;;;;;;;;;;;;;;;;4992749;28;20337;-43
2020/12/14 01:58:35;;;;;;;;;;;;;;;;;;4992760;28;20330;-44
2020/12/14 02:01:02;;;;;;;;;;;;;;;;;;4992705;28;20439;-43
2020/12/14 02:03:27;;;;;;;;;;;;;;;;;;4992357;28;19914;-42
2020/12/14 02:05:52;;;;;;;;;;;;;;;;;;4992652;28;19914;-46
2020/12/14 02:08:18;;;;;;;;;;;;;;;;;;4992975;28;19921;-43
2020/12/14 02:10:43;;;;;;;;;;;;;;;;;;4996332;28;19914;-45
2020/12/14 02:13:08;;;;;;;;;;;;;;;;;;4996073;28;19910;-44
2020/12/14 02:15:33;;;;;;;;;;;;;;;;;;4996163;28;19913;-45
2020/12/14 02:17:58;;;;;;;;;;;;;;;;;;4996133;28;19910;-43
2020/12/14 02:20:23;;;;;;;;;;;;;;;;;;4996065;28;19906;-44
2020/12/14 02:22:48;;;;;;;;;;;;;;;;;;4995785;28;19917;-43
2020/12/14 02:25:13;;;;;;;;;;;;;;;;;;4995844;28;19925;-43
2020/12/14 02:27:38;;;;;;;;;;;;;;;;;;4996150;28;19910;-44
2020/12/14 02:30:04;;;;;;;;;;;;;;;;;;4995979;28;20363;-43
2020/12/14 02:32:30;;;;;;;;;;;;;;;;;;4995676;28;19956;-44
2020/12/14 02:34:55;;;;;;;;;;;;;;;;;;4996183;28;19910;-43
2020/12/14 02:37:20;;;;;;;;;;;;;;;;;;4995813;28;19914;-43
2020/12/14 02:39:45;;;;;;;;;;;;;;;;;;4995863;28;19914;-43
2020/12/14 02:42:10;;;;;;;;;;;;;;;;;;4995952;28;19941;-42
2020/12/14 02:44:35;;;;;;;;;;;;;;;;;;4995548;28;19914;-43
2020/12/14 02:47:00;;;;;;;;;;;;;;;;;;4995987;28;19916;-43
2020/12/14 02:49:25;;;;;;;;;;;;;;;;;;4995605;28;20406;-46
2020/12/14 02:51:51;;;;;;;;;;;;;;;;;;4995524;28;19914;-43
2020/12/14 02:54:16;;;;;;;;;;;;;;;;;;4995344;28;19957;-46
2020/12/14 02:56:41;;;;;;;;;;;;;;;;;;4995488;28;19948;-43
2020/12/14 02:59:06;;;;;;;;;;;;;;;;;;4995453;28;19949;-44
2020/12/14 03:01:31;;;;;;;;;;;;;;;;;;4994073;28;19917;-43
2020/12/14 03:03:56;;;;;;;;;;;;;;;;;;4994940;28;19940;-42
2020/12/14 03:06:21;;;;;;;;;;;;;;;;;;4995460;28;19910;-44
2020/12/14 03:08:46;;;;;;;;;;;;;;;;;;4995206;28;19932;-44
2020/12/14 03:11:14;;;;;;;;;;;;;;;;;;4995239;28;19910;-43
2020/12/14 03:13:39;;;;;;;;;;;;;;;;;;4994849;28;19913;-43
2020/12/14 03:16:04;;;;;;;;;;;;;;;;;;4993979;28;19965;-47
2020/12/14 03:18:29;;;;;;;;;;;;;;;;;;4994638;28;19910;-42
2020/12/14 03:20:54;;;;;;;;;;;;;;;;;;4994041;28;19910;-45
2020/12/14 03:23:19;;;;;;;;;;;;;;;;;;4993605;28;19914;-44
2020/12/14 03:25:45;;;;;;;;;;;;;;;;;;4994983;28;19945;-44
2020/12/14 03:28:10;;;;;;;;;;;;;;;;;;4994975;28;19910;-43
2020/12/14 03:30:35;;;;;;;;;;;;;;;;;;4994935;28;19910;-44
2020/12/14 03:33:00;;;;;;;;;;;;;;;;;;4994497;28;19910;-43
2020/12/14 03:35:25;;;;;;;;;;;;;;;;;;4994768;28;20001;-44
2020/12/14 03:37:50;;;;;;;;;;;;;;;;;;4994758;28;19914;-43
2020/12/14 03:40:16;;;;;;;;;;;;;;;;;;4994738;28;19910;-43
2020/12/14 03:42:41;;;;;;;;;;;;;;;;;;4994598;28;20287;-41
2020/12/14 03:45:06;;;;;;;;;;;;;;;;;;4994805;28;20280;-41
2020/12/14 03:47:31;;;;;;;;;;;;;;;;;;4993418;28;20291;-41
2020/12/14 03:49:56;;;;;;;;;;;;;;;;;;4994432;28;20001;-42
2020/12/14 03:52:21;;;;;;;;;;;;;;;;;;4994167;28;19917;-47
2020/12/14 03:54:46;;;;;;;;;;;;;;;;;;4994352;28;19910;-40
2020/12/14 03:57:11;;;;;;;;;;;;;;;;;;4994260;28;19909;-46
2020/12/14 03:59:36;;;;;;;;;;;;;;;;;;4994305;28;19964;-42
2020/12/14 04:02:01;;;;;;;;;;;;;;;;;;4994094;28;19933;-45
2020/12/14 04:04:27;;;;;;;;;;;;;;;;;;4994026;28;20323;-43
2020/12/14 04:06:52;;;;;;;;;;;;;;;;;;4994196;28;20366;-44
2020/12/14 04:09:17;;;;;;;;;;;;;;;;;;4993907;28;20334;-44
2020/12/14 04:11:42;;;;;;;;;;;;;;;;;;4994184;28;20268;-44
2020/12/14 04:14:07;;;;;;;;;;;;;;;;;;4993695;28;20445;-44
2020/12/14 04:16:32;;;;;;;;;;;;;;;;;;4994062;28;20437;-45
2020/12/14 04:18:57;;;;;;;;;;;;;;;;;;4993978;28;19910;-44
2020/12/14 04:21:22;;;;;;;;;;;;;;;;;;4994005;28;19914;-43
2020/12/14 04:23:47;;;;;;;;;;;;;;;;;;4993489;28;19967;-44
2020/12/14 04:26:12;;;;;;;;;;;;;;;;;;4993972;28;20438;-44
2020/12/14 04:28:38;;;;;;;;;;;;;;;;;;4993943;28;19910;-44
2020/12/14 04:31:03;;;;;;;;;;;;;;;;;;4993828;28;19910;-44
2020/12/14 04:33:28;;;;;;;;;;;;;;;;;;4993390;28;19910;-43
2020/12/14 04:35:53;;;;;;;;;;;;;;;;;;4993663;28;20011;-43
2020/12/14 04:38:18;;;;;;;;;;;;;;;;;;4993578;28;19910;-45
2020/12/14 04:40:43;;;;;;;;;;;;;;;;;;4993692;28;20335;-42
2020/12/14 04:43:09;;;;;;;;;;;;;;;;;;4993318;28;20005;-45
2020/12/14 04:45:34;;;;;;;;;;;;;;;;;;4993491;28;20330;-43
2020/12/14 04:47:59;;;;;;;;;;;;;;;;;;4993945;28;19916;-43
2020/12/14 04:50:24;;;;;;;;;;;;;;;;;;4993414;28;20000;-43
2020/12/14 04:52:49;;;;;;;;;;;;;;;;;;4993236;28;20004;-43
2020/12/14 04:55:15;;;;;;;;;;;;;;;;;;4993388;28;19944;-46
2020/12/14 04:57:40;;;;;;;;;;;;;;;;;;4993391;28;20008;-43
2020/12/14 05:00:05;;;;;;;;;;;;;;;;;;4993298;28;20004;-47
2020/12/14 05:02:30;;;;;;;;;;;;;;;;;;4993112;28;20068;-44
2020/12/14 05:04:55;;;;;;;;;;;;;;;;;;4993060;28;20414;-46
2020/12/14 05:07:20;;;;;;;;;;;;;;;;;;4992982;28;20488;-44
2020/12/14 05:09:45;;;;;;;;;;;;;;;;;;4993238;28;19914;-44
2020/12/14 05:12:10;;;;;;;;;;;;;;;;;;4993113;28;19914;-44
2020/12/14 05:14:36;;;;;;;;;;;;;;;;;;4993125;28;20341;-43
2020/12/14 05:17:01;;;;;;;;;;;;;;;;;;4993051;28;19913;-44
2020/12/14 05:19:26;;;;;;;;;;;;;;;;;;4993107;28;19917;-43
2020/12/14 05:21:51;;;;;;;;;;;;;;;;;;4993116;28;19921;-43
2020/12/14 05:24:16;;;;;;;;;;;;;;;;;;4992852;28;19922;-43
2020/12/14 05:26:41;;;;;;;;;;;;;;;;;;4993174;28;19909;-44
2020/12/14 05:29:06;;;;;;;;;;;;;;;;;;4993327;28;20364;-43
2020/12/14 05:31:31;;;;;;;;;;;;;;;;;;4993051;28;20105;-44
2020/12/14 05:33:56;;;;;;;;;;;;;;;;;;4992728;28;19910;-44
2020/12/14 05:36:22;;;;;;;;;;;;;;;;;;4992907;28;19916;-45
2020/12/14 05:38:47;;;;;;;;;;;;;;;;;;4992922;28;19910;-43
2020/12/14 05:41:12;;;;;;;;;;;;;;;;;;4993054;28;19909;-46
2020/12/14 05:43:37;;;;;;;;;;;;;;;;;;4993734;28;20009;-42
2020/12/14 05:46:02;;;;;;;;;;;;;;;;;;4996990;28;20045;-45
2020/12/14 05:48:27;;;;;;;;;;;;;;;;;;4996703;28;19913;-43
2020/12/14 05:50:52;;;;;;;;;;;;;;;;;;4996674;28;20287;-44
2020/12/14 05:53:17;;;;;;;;;;;;;;;;;;4996522;28;19968;-43
2020/12/14 05:55:42;;;;;;;;;;;;;;;;;;4996614;28;19906;-44
2020/12/14 05:58:07;;;;;;;;;;;;;;;;;;4996612;28;19909;-43
2020/12/14 06:00:33;;;;;;;;;;;;;;;;;;4996694;28;19960;-44
2020/12/14 06:02:58;;;;;;;;;;;;;;;;;;4996283;28;19969;-42
2020/12/14 06:05:23;;;;;;;;;;;;;;;;;;4996374;28;20004;-43
2020/12/14 06:07:48;;;;;;;;;;;;;;;;;;4996029;28;19909;-46
2020/12/14 06:10:14;;;;;;;;;;;;;;;;;;4996497;28;19910;-44
2020/12/14 06:12:41;;;;;;;;;;;;;;;;;;4996146;28;19920;-44
2020/12/14 06:15:06;;;;;;;;;;;;;;;;;;4996411;28;20005;-42
2020/12/14 06:17:31;;;;;;;;;;;;;;;;;;4996133;28;20458;-43
2020/12/14 06:19:56;;;;;;;;;;;;;;;;;;4996160;28;19909;-43
2020/12/14 06:22:21;;;;;;;;;;;;;;;;;;4995949;28;19910;-44
2020/12/14 06:24:46;;;;;;;;;;;;;;;;;;4995896;28;19918;-43
2020/12/14 06:27:12;;;;;;;;;;;;;;;;;;4996197;28;19936;-44
2020/12/14 06:29:37;;;;;;;;;;;;;;;;;;4995936;28;19910;-44
2020/12/14 06:32:02;;;;;;;;;;;;;;;;;;4995400;28;19917;-44
2020/12/14 06:34:27;;;;;;;;;;;;;;;;;;4989454;28;19910;-42
2020/12/14 06:36:52;;;;;;;;;;;;;;;;;;4984134;28;20291;-43
2020/12/14 06:39:17;;;;;;;;;;;;;;;;;;4994962;28;19910;-46
2020/12/14 06:41:42;;;;;;;;;;;;;;;;;;4994625;28;19909;-43
2020/12/14 06:44:07;;;;;;;;;;;;;;;;;;4994265;28;19968;-47
2020/12/14 06:46:33;;;;;;;;;;;;;;;;;;4995092;28;19909;-44
2020/12/14 06:48:58;;;;;;;;;;;;;;;;;;4994482;28;19910;-44
2020/12/14 06:51:23;;;;;;;;;;;;;;;;;;4993235;28;19916;-44
2020/12/14 06:53:50;;;;;;;;;;;;;;;;;;4984057;28;19910;-42
2020/12/14 06:56:15;;;;;;;;;;;;;;;;;;4974261;28;19910;-43
2020/12/14 06:58:41;;;;;;;;;;;;;;;;;;4975125;28;20009;-45
2020/12/14 07:01:06;;;;;;;;;;;;;;;;;;4975059;28;19949;-45
2020/12/14 07:03:31;;;;;;;;;;;;;;;;;;4974917;28;19973;-45
2020/12/14 07:05:56;;;;;;;;;;;;;;;;;;4974892;28;19965;-45
2020/12/14 07:08:22;;;;;;;;;;;;;;;;;;4974532;28;20360;-43
2020/12/14 07:10:47;;;;;;;;;;;;;;;;;;4984374;28;19910;-43
2020/12/14 07:13:13;;;;;;;;;;;;;;;;;;4994429;28;19910;-45
2020/12/14 07:15:38;;;;;;;;;;;;;;;;;;4994162;28;19916;-41
2020/12/14 07:18:03;;;;;;;;;;;;;;;;;;4992929;28;20476;-44
2020/12/14 07:20:28;;;;;;;;;;;;;;;;;;4994145;28;20000;-45
2020/12/14 07:22:53;;;;;;;;;;;;;;;;;;4994152;28;20040;-44
2020/12/14 07:25:18;;;;;;;;;;;;;;;;;;5060313;23;19926;-43
2020/12/14 07:27:43;;;;;;;;;;;;;;;;;;5013300;28;19909;-43
2020/12/14 07:30:08;;;;;;;;;;;;;;;;;;5013228;28;19917;-44
2020/12/14 07:32:33;;;;;;;;;;;;;;;;;;5012806;28;19944;-41
2020/12/14 07:34:59;;;;;;;;;;;;;;;;;;5012580;28;19909;-41
2020/12/14 07:37:24;;;;;;;;;;;;;;;;;;5008737;28;19910;-42
2020/12/14 07:39:49;;;;;;;;;;;;;;;;;;4996442;28;19961;-42
2020/12/14 07:42:14;;;;;;;;;;;;;;;;;;5011110;28;19910;-40
2020/12/14 07:44:39;;;;;;;;;;;;;;;;;;5007234;28;19918;-42
2020/12/14 07:47:04;;;;;;;;;;;;;;;;;;5013137;28;19948;-41
2020/12/14 07:49:29;;;;;;;;;;;;;;;;;;5013168;28;19968;-41
2020/12/14 07:51:57;;;;;;;;;;;;;;;;;;5012879;28;20007;-42
2020/12/14 07:54:22;;;;;;;;;;;;;;;;;;5013053;28;19914;-40
2020/12/14 07:56:59;;;;;;;;;;;;;;;;;;5008332;28;19917;-41
2020/12/14 07:59:24;;;;;;;;;;;;;;;;;;5012789;28;19909;-42
2020/12/14 08:01:50;;;;;;;;;;;;;;;;;;5011843;28;20367;-41
2020/12/14 08:04:15;;;;;;;;;;;;;;;;;;5010981;28;20313;-41
2020/12/14 08:06:40;;;;;;;;;;;;;;;;;;5011868;28;20004;-42
2020/12/14 08:09:05;;;;;;;;;;;;;;;;;;5014123;28;19924;-41
2020/12/14 08:11:30;;;;;;;;;;;;;;;;;;5024777;28;19955;-41
2020/12/14 08:13:55;;;;;;;;;;;;;;;;;;5019037;28;20367;-43
2020/12/14 08:16:20;;;;;;;;;;;;;;;;;;5004009;28;19963;-42
2020/12/14 08:18:45;;;;;;;;;;;;;;;;;;4992954;28;19917;-41
2020/12/14 08:21:11;;;;;;;;;;;;;;;;;;4995005;28;19960;-42
2020/12/14 08:23:36;;;;;;;;;;;;;;;;;;5012187;28;19959;-41
2020/12/14 08:26:01;;;;;;;;;;;;;;;;;;5012374;28;19917;-43
2020/12/14 08:28:26;;;;;;;;;;;;;;;;;;5011949;28;20008;-41
2020/12/14 08:30:51;;;;;;;;;;;;;;;;;;5012277;28;19910;-41
2020/12/14 08:33:19;;;;;;;;;;;;;;;;;;5011527;28;19913;-42
2020/12/14 08:35:44;;;;;;;;;;;;;;;;;;5012462;28;20400;-41
2020/12/14 08:38:09;;;;;;;;;;;;;;;;;;5012802;28;20004;-41
2020/12/14 08:40:34;;;;;;;;;;;;;;;;;;5012631;28;19909;-41
2020/12/14 08:42:59;;;;;;;;;;;;;;;;;;5012361;28;19947;-41
2020/12/14 08:45:27;;;;;;;;;;;;;;;;;;5012485;28;20299;-41
2020/12/14 08:47:53;;;;;;;;;;;;;;;;;;5011946;28;20219;-40
2020/12/14 08:50:19;;;;;;;;;;;;;;;;;;5011981;28;19910;-40
2020/12/14 08:52:44;;;;;;;;;;;;;;;;;;5012183;28;20337;-42
2020/12/14 08:55:09;;;;;;;;;;;;;;;;;;5012321;28;19914;-40
2020/12/14 08:57:34;;;;;;;;;;;;;;;;;;5012227;28;19910;-41
2020/12/14 09:00:00;;;;;;;;;;;;;;;;;;5012078;28;20359;-41
2020/12/14 09:02:25;;;;;;;;;;;;;;;;;;5011979;28;19917;-40
2020/12/14 09:04:53;;;;;;;;;;;;;;;;;;5011851;28;19914;-41
2020/12/14 09:07:18;;;;;;;;;;;;;;;;;;5012067;28;20055;-40
2020/12/14 09:09:43;;;;;;;;;;;;;;;;;;5012016;28;19963;-42
2020/12/14 09:12:08;;;;;;;;;;;;;;;;;;5011903;28;20239;-41
2020/12/14 09:14:34;;;;;;;;;;;;;;;;;;5011658;28;20379;-41
2020/12/14 09:16:59;;;;;;;;;;;;;;;;;;5012303;28;19909;-43
2020/12/14 09:19:24;;;;;;;;;;;;;;;;;;5011115;28;19909;-42
2020/12/14 09:21:49;;;;;;;;;;;;;;;;;;5011964;28;19980;-42
2020/12/14 09:24:14;;;;;;;;;;;;;;;;;;5011276;28;19953;-41
2020/12/14 09:26:39;;;;;;;;;;;;;;;;;;5011541;28;19917;-41
2020/12/14 09:29:04;;;;;;;;;;;;;;;;;;5011870;28;20287;-41
2020/12/14 09:31:29;;;;;;;;;;;;;;;;;;5011665;28;19913;-39
2020/12/14 09:33:55;;;;;;;;;;;;;;;;;;5010765;28;19956;-39
2020/12/14 09:36:20;;;;;;;;;;;;;;;;;;5011522;28;19909;-42
2020/12/14 09:38:45;;;;;;;;;;;;;;;;;;5010707;28;19972;-39
2020/12/14 09:41:10;;;;;;;;;;;;;;;;;;5012148;28;19961;-42
2020/12/14 09:43:35;;;;;;;;;;;;;;;;;;4995988;28;19960;-39
2020/12/14 09:46:00;;;;;;;;;;;;;;;;;;5010775;28;20365;-40
2020/12/14 09:48:25;;;;;;;;;;;;;;;;;;5012044;28;20369;-43
2020/12/14 09:50:50;;;;;;;;;;;;;;;;;;5012144;28;20386;-41
2020/12/14 09:53:15;;;;;;;;;;;;;;;;;;5010569;28;19941;-42
2020/12/14 09:55:41;;;;;;;;;;;;;;;;;;5012087;28;19959;-39
2020/12/14 09:58:06;;;;;;;;;;;;;;;;;;5011982;28;19964;-43
2020/12/14 10:00:31;;;;;;;;;;;;;;;;;;5012018;28;19953;-41
2020/12/14 10:02:56;;;;;;;;;;;;;;;;;;5011452;28;19956;-41
2020/12/14 10:05:21;;;;;;;;;;;;;;;;;;5010713;28;20011;-41
2020/12/14 10:07:46;;;;;;;;;;;;;;;;;;5011920;28;19914;-41
2020/12/14 10:10:11;;;;;;;;;;;;;;;;;;5012131;28;19910;-42
2020/12/14 10:12:37;;;;;;;;;;;;;;;;;;5012030;28;19913;-42
2020/12/14 10:15:02;;;;;;;;;;;;;;;;;;5011746;28;19917;-42
2020/12/14 10:17:27;;;;;;;;;;;;;;;;;;5010617;28;19916;-42
2020/12/14 10:19:54;;;;;;;;;;;;;;;;;;5012199;28;19944;-39
2020/12/14 10:22:19;;;;;;;;;;;;;;;;;;5011528;28;19936;-40
2020/12/14 10:24:44;;;;;;;;;;;;;;;;;;5011494;28;19922;-43
2020/12/14 10:27:09;;;;;;;;;;;;;;;;;;5011705;28;19910;-41
2020/12/14 10:29:34;;;;;;;;;;;;;;;;;;5012700;28;19910;-41
2020/12/14 10:31:59;;;;;;;;;;;;;;;;;;5014361;28;19971;-40
2020/12/14 10:34:25;;;;;;;;;;;;;;;;;;5015415;28;20368;-41
2020/12/14 10:36:50;;;;;;;;;;;;;;;;;;5015293;28;20298;-42
2020/12/14 10:39:15;;;;;;;;;;;;;;;;;;5015332;28;19913;-41
2020/12/14 10:41:40;;;;;;;;;;;;;;;;;;5015357;28;20000;-42
2020/12/14 10:44:05;;;;;;;;;;;;;;;;;;5011884;28;20275;-40
2020/12/14 10:46:30;;;;;;;;;;;;;;;;;;4995243;28;19916;-40
2020/12/14 10:48:55;;;;;;;;;;;;;;;;;;4994054;28;20012;-40
2020/12/14 10:51:20;;;;;;;;;;;;;;;;;;4995466;28;20000;-41
2020/12/14 10:53:46;;;;;;;;;;;;;;;;;;4995031;28;20531;-41
2020/12/14 10:56:11;;;;;;;;;;;;;;;;;;4995243;28;19997;-41
2020/12/14 10:58:36;;;;;;;;;;;;;;;;;;4995154;28;19978;-42
2020/12/14 11:01:01;;;;;;;;;;;;;;;;;;4995131;28;19925;-41
2020/12/14 11:03:26;;;;;;;;;;;;;;;;;;4994592;28;20342;-42
2020/12/14 11:05:51;;;;;;;;;;;;;;;;;;4995014;28;19964;-41
2020/12/14 11:08:16;;;;;;;;;;;;;;;;;;4994991;28;19979;-43
2020/12/14 11:10:41;;;;;;;;;;;;;;;;;;4994980;28;19910;-41
2020/12/14 11:13:06;;;;;;;;;;;;;;;;;;5002296;28;20279;-41
2020/12/14 11:15:32;;;;;;;;;;;;;;;;;;5008106;28;20334;-40
2020/12/14 11:17:57;;;;;;;;;;;;;;;;;;5005556;28;20492;-42
2020/12/14 11:20:22;;;;;;;;;;;;;;;;;;5014347;28;20418;-39
2020/12/14 11:22:47;;;;;;;;;;;;;;;;;;4998455;28;20005;-40
2020/12/14 11:25:13;;;;;;;;;;;;;;;;;;4994426;28;19953;-43
2020/12/14 11:27:38;;;;;;;;;;;;;;;;;;4994556;28;19945;-40
2020/12/14 11:30:03;;;;;;;;;;;;;;;;;;4999693;28;19910;-40
2020/12/14 11:32:28;;;;;;;;;;;;;;;;;;5013259;28;19910;-39
2020/12/14 11:34:53;;;;;;;;;;;;;;;;;;5014018;28;20021;-41
2020/12/14 11:37:18;;;;;;;;;;;;;;;;;;5014221;28;19909;-40
2020/12/14 11:39:43;;;;;;;;;;;;;;;;;;5014021;28;19932;-40
2020/12/14 11:42:08;;;;;;;;;;;;;;;;;;5012850;28;20355;-41
2020/12/14 11:44:34;;;;;;;;;;;;;;;;;;5006980;28;20454;-42
2020/12/14 11:46:59;;;;;;;;;;;;;;;;;;4998055;28;20004;-41
2020/12/14 11:49:24;;;;;;;;;;;;;;;;;;5013846;28;20000;-41
2020/12/14 11:51:49;;;;;;;;;;;;;;;;;;5013650;28;19956;-43
2020/12/14 11:54:14;;;;;;;;;;;;;;;;;;5013749;28;19957;-40
2020/12/14 11:56:39;;;;;;;;;;;;;;;;;;5013589;28;19909;-43
2020/12/14 11:59:04;;;;;;;;;;;;;;;;;;5013597;28;19909;-38
2020/12/14 12:01:29;;;;;;;;;;;;;;;;;;5013535;28;19910;-42
2020/12/14 12:03:54;;;;;;;;;;;;;;;;;;5013116;28;20000;-42
2020/12/14 12:06:20;;;;;;;;;;;;;;;;;;5013560;28;20000;-42
2020/12/14 12:08:45;;;;;;;;;;;;;;;;;;5013369;28;20036;-41
2020/12/14 12:11:10;;;;;;;;;;;;;;;;;;5013611;28;20028;-41
2020/12/14 12:13:36;;;;;;;;;;;;;;;;;;5012988;28;20000;-43
2020/12/14 12:16:01;;;;;;;;;;;;;;;;;;5013127;28;20429;-41
2020/12/14 12:18:27;;;;;;;;;;;;;;;;;;5013049;28;20314;-41
2020/12/14 12:20:52;;;;;;;;;;;;;;;;;;5013049;28;20374;-41
2020/12/14 12:23:17;;;;;;;;;;;;;;;;;;5012835;28;19984;-41
2020/12/14 12:25:42;;;;;;;;;;;;;;;;;;5013154;28;19921;-42
2020/12/14 12:28:07;;;;;;;;;;;;;;;;;;5013152;28;20000;-41
2020/12/14 12:30:34;;;;;;;;;;;;;;;;;;5013373;28;20004;-40
2020/12/14 12:32:59;;;;;;;;;;;;;;;;;;5012492;28;19910;-43
2020/12/14 12:35:24;;;;;;;;;;;;;;;;;;5012997;28;20004;-39
2020/12/14 12:37:50;;;;;;;;;;;;;;;;;;5013265;28;20004;-41
2020/12/14 12:40:15;;;;;;;;;;;;;;;;;;5013005;28;19993;-41
2020/12/14 12:42:40;;;;;;;;;;;;;;;;;;5012702;28;20004;-41
2020/12/14 12:45:05;;;;;;;;;;;;;;;;;;5012645;28;19914;-41
2020/12/14 12:47:31;;;;;;;;;;;;;;;;;;5012896;28;19914;-40
2020/12/14 12:49:56;;;;;;;;;;;;;;;;;;5012800;28;19910;-42
2020/12/14 12:52:21;;;;;;;;;;;;;;;;;;5012384;28;19910;-41
2020/12/14 12:54:46;;;;;;;;;;;;;;;;;;5012659;28;20148;-40
2020/12/14 12:57:11;;;;;;;;;;;;;;;;;;5012659;28;20367;-39
2020/12/14 12:59:37;;;;;;;;;;;;;;;;;;5012676;28;19910;-41
2020/12/14 13:02:02;;;;;;;;;;;;;;;;;;5012352;28;20000;-41
2020/12/14 13:04:27;;;;;;;;;;;;;;;;;;5012381;28;19914;-41
2020/12/14 13:06:52;;;;;;;;;;;;;;;;;;5012671;28;19914;-42
2020/12/14 13:09:17;;;;;;;;;;;;;;;;;;5012601;28;19914;-39
2020/12/14 13:11:43;;;;;;;;;;;;;;;;;;5012631;28;19910;-42
2020/12/14 13:14:08;;;;;;;;;;;;;;;;;;5012205;28;19964;-42
2020/12/14 13:16:33;;;;;;;;;;;;;;;;;;5012237;28;19910;-40
2020/12/14 13:18:58;;;;;;;;;;;;;;;;;;5011515;28;19957;-41
2020/12/14 13:21:23;;;;;;;;;;;;;;;;;;5003988;28;19957;-40
2020/12/14 13:23:48;;;;;;;;;;;;;;;;;;4993539;28;20005;-42
2020/12/14 13:28:28;;;;;;;;;;;;;;;;;;5069483;27;19921;-48
2020/12/14 13:30:53;;;;;;;;;;;;;;;;;;5048409;28;20016;-43
2020/12/14 13:33:18;;;;;;;;;;;;;;;;;;5045344;28;19996;-46
2020/12/14 13:35:43;;;;;;;;;;;;;;;;;;5048000;28;20008;-45
2020/12/14 13:38:09;;;;;;;;;;;;;;;;;;5047618;28;20000;-45
2020/12/14 13:40:35;;;;;;;;;;;;;;;;;;5047924;28;19916;-44
2020/12/14 13:43:00;;;;;;;;;;;;;;;;;;5045881;28;19913;-47
2020/12/14 13:45:25;;;;;;;;;;;;;;;;;;5048261;28;19932;-44
2020/12/14 13:47:50;;;;;;;;;;;;;;;;;;5047968;28;19917;-42
2020/12/14 13:50:15;;;;;;;;;;;;;;;;;;5048080;28;19913;-42
2020/12/14 13:52:41;;;;;;;;;;;;;;;;;;5047218;28;19963;-45
2020/12/14 13:55:06;;;;;;;;;;;;;;;;;;5047893;28;20003;-46
2020/12/14 13:57:31;;;;;;;;;;;;;;;;;;5047582;28;19909;-45
2020/12/14 13:59:57;;;;;;;;;;;;;;;;;;5047975;28;20388;-48
2020/12/14 14:02:22;;;;;;;;;;;;;;;;;;5045823;28;19914;-44
2020/12/14 14:04:47;;;;;;;;;;;;;;;;;;5047682;28;19959;-46
2020/12/14 14:07:12;;;;;;;;;;;;;;;;;;5047519;28;19917;-45
2020/12/14 14:09:37;;;;;;;;;;;;;;;;;;5047765;28;19912;-44
2020/12/14 14:12:02;;;;;;;;;;;;;;;;;;5046422;28;20267;-45
2020/12/14 14:14:28;;;;;;;;;;;;;;;;;;5047362;28;19913;-43
2020/12/14 14:16:53;;;;;;;;;;;;;;;;;;5046587;28;20008;-43
2020/12/14 14:20:11;;;;;;;;;;;;;;;;;;5068178;28;19916;-45
2020/12/14 14:22:49;;;;;;;;;;;;;;;;;;5006493;28;50461;-46
2020/12/14 14:25:14;;;;;;;;;;;;;;;;;;5008649;28;20378;-45
2020/12/14 14:27:39;;;;;;;;;;;;;;;;;;5009489;28;53025;-45
2020/12/14 14:30:04;;;;;;;;;;;;;;;;;;5028892;28;19913;-45
2020/12/14 14:32:29;;;;;;;;;;;;;;;;;;5027038;28;20405;-44
2020/12/14 14:34:55;;;;;;;;;;;;;;;;;;5027712;28;20422;-44
2020/12/14 14:37:21;;;;;;;;;;;;;;;;;;5040129;28;19916;-43
2020/12/14 14:39:46;;;;;;;;;;;;;;;;;;5048233;28;19917;-41
2020/12/14 14:42:11;;;;;;;;;;;;;;;;;;5046072;28;19967;-46
2020/12/14 14:44:37;;;;;;;;;;;;;;;;;;5040921;28;19920;-45
2020/12/14 14:47:02;;;;;;;;;;;;;;;;;;5028331;28;19913;-45
2020/12/14 14:49:27;;;;;;;;;;;;;;;;;;5028186;28;19925;-38
2020/12/14 14:51:52;;;;;;;;;;;;;;;;;;5039452;28;19959;-42
2020/12/14 14:54:17;;;;;;;;;;;;;;;;;;5046999;28;19964;-46
2020/12/14 14:56:42;;;;;;;;;;;;;;;;;;5047910;28;19909;-42
2020/12/14 14:59:07;;;;;;;;;;;;;;;;;;5047790;28;19924;-45
2020/12/14 15:01:32;;;;;;;;;;;;;;;;;;5048053;28;19913;-44
2020/12/14 15:03:57;;;;;;;;;;;;;;;;;;5047005;28;19931;-44
2020/12/14 15:06:23;;;;;;;;;;;;;;;;;;5047924;28;19995;-43
2020/12/14 15:08:48;;;;;;;;;;;;;;;;;;5047487;28;19913;-43
2020/12/14 15:11:13;;;;;;;;;;;;;;;;;;5047616;28;19980;-44
2020/12/14 15:13:38;;;;;;;;;;;;;;;;;;5047505;28;20012;-42
2020/12/14 15:16:03;;;;;;;;;;;;;;;;;;5046133;28;19909;-43
2020/12/14 15:18:28;;;;;;;;;;;;;;;;;;5047554;28;19916;-44
2020/12/14 15:20:53;;;;;;;;;;;;;;;;;;5047357;28;19921;-43
2020/12/14 15:23:18;;;;;;;;;;;;;;;;;;5029473;28;19913;-43
2020/12/14 15:25:44;;;;;;;;;;;;;;;;;;5026734;28;20362;-45
2020/12/14 15:28:09;;;;;;;;;;;;;;;;;;5027334;28;19916;-42
2020/12/14 15:30:34;;;;;;;;;;;;;;;;;;5027765;28;19910;-44
2020/12/14 15:32:59;;;;;;;;;;;;;;;;;;5019017;28;19910;-40
2020/12/14 15:35:24;;;;;;;;;;;;;;;;;;5014569;28;19909;-42
2020/12/14 15:37:49;;;;;;;;;;;;;;;;;;5015456;28;19910;-44
2020/12/14 15:40:14;;;;;;;;;;;;;;;;;;5013863;28;19917;-45
2020/12/14 15:42:40;;;;;;;;;;;;;;;;;;5014113;28;19913;-46
2020/12/14 15:45:05;;;;;;;;;;;;;;;;;;5014404;28;19910;-43
2020/12/14 15:47:30;;;;;;;;;;;;;;;;;;5014798;28;19909;-42
2020/12/14 15:49:56;;;;;;;;;;;;;;;;;;5014552;28;19921;-46
2020/12/14 15:52:21;;;;;;;;;;;;;;;;;;5012952;28;19914;-42
2020/12/14 15:54:46;;;;;;;;;;;;;;;;;;5013601;28;19914;-44
2020/12/14 15:57:11;;;;;;;;;;;;;;;;;;5014581;28;20364;-44
2020/12/14 15:59:36;;;;;;;;;;;;;;;;;;5013732;28;19959;-45
2020/12/14 16:02:04;;;;;;;;;;;;;;;;;;5013888;28;19918;-43
2020/12/14 16:04:29;;;;;;;;;;;;;;;;;;5014156;28;20306;-43
2020/12/14 16:06:54;;;;;;;;;;;;;;;;;;5013950;28;20281;-44
2020/12/14 16:09:19;;;;;;;;;;;;;;;;;;5014402;28;20438;-44
2020/12/14 16:11:44;;;;;;;;;;;;;;;;;;5014255;28;20362;-44
2020/12/14 16:14:09;;;;;;;;;;;;;;;;;;5013240;28;19916;-42
2020/12/14 16:16:36;;;;;;;;;;;;;;;;;;5014144;28;19909;-43
2020/12/14 16:19:01;;;;;;;;;;;;;;;;;;5014011;28;20314;-44
2020/12/14 16:21:26;;;;;;;;;;;;;;;;;;5023325;28;19923;-43
2020/12/14 16:23:51;;;;;;;;;;;;;;;;;;5032287;28;19909;-44
2020/12/14 16:26:17;;;;;;;;;;;;;;;;;;5032465;28;19959;-41
2020/12/14 16:28:42;;;;;;;;;;;;;;;;;;5033161;28;20512;-44
2020/12/14 16:31:09;;;;;;;;;;;;;;;;;;5031667;28;19909;-43
2020/12/14 16:33:34;;;;;;;;;;;;;;;;;;5030815;28;19909;-39